createdAt,value
2024-04-05T00:01:32.812Z,99311.98
2024-04-05T00:06:36.936Z,99313.72
2024-04-05T00:11:40.195Z,99317.35
2024-04-05T00:16:49.570Z,99320.21
2024-04-05T00:21:55.114Z,99327.74
2024-04-05T00:26:58.149Z,99330.38
2024-04-05T00:32:01.223Z,99336.02
2024-04-05T00:37:11.895Z,99340.13
2024-04-05T00:42:23.967Z,99353.79
2024-04-05T00:47:27.400Z,99364.98
2024-04-05T00:52:34.069Z,99368.23
2024-04-05T00:57:37.515Z,99373.11
2024-04-05T01:02:40.744Z,99373.22
2024-04-05T01:07:44.173Z,99371.31
2024-04-05T01:13:01.351Z,99375.20
2024-04-05T01:18:09.723Z,99373.12
2024-04-05T01:23:20.966Z,99370.45
2024-04-05T01:28:24.023Z,99375.83
2024-04-05T01:33:27.377Z,99380.69
2024-04-05T01:38:39.529Z,99393.70
2024-04-05T01:43:51.629Z,99399.80
2024-04-05T01:48:57.489Z,99409.73
2024-04-05T01:54:00.513Z,99412.52
2024-04-05T01:59:03.553Z,99416.09
2024-04-05T02:04:15.932Z,99414.52
2024-04-05T02:09:19.218Z,99417.17
2024-04-05T02:14:28.365Z,99417.41
2024-04-05T02:19:42.015Z,99426.55
2024-04-05T02:24:45.510Z,99430.77
2024-04-05T02:29:48.680Z,99433.53
2024-04-05T02:34:52.233Z,99433.63
2024-04-05T02:39:58.376Z,99430.90
2024-04-05T02:45:04.638Z,99438.29
2024-04-05T02:50:18.174Z,99439.92
2024-04-05T02:55:33.737Z,99441.45
2024-04-05T03:00:38.421Z,99448.80
2024-04-05T03:05:41.601Z,99459.00
2024-04-05T03:10:44.667Z,99467.08
2024-04-05T03:15:47.819Z,99479.17
2024-04-05T03:20:50.860Z,99486.05
2024-04-05T03:25:53.858Z,99492.42
2024-04-05T03:30:56.857Z,99487.80
2024-04-05T03:36:16.348Z,99493.61
2024-04-05T03:41:19.510Z,99498.04
2024-04-05T03:46:33.871Z,99495.34
2024-04-05T03:51:36.871Z,99502.44
2024-04-05T03:56:44.711Z,99509.78
2024-04-05T04:01:52.256Z,99519.66
2024-04-05T04:06:55.762Z,99526.55
2024-04-05T04:12:01.260Z,99540.48
2024-04-05T04:17:04.476Z,99544.67
2024-04-05T04:22:08.499Z,99553.23
2024-04-05T04:27:12.909Z,99557.14
2024-04-05T04:32:16.420Z,99568.39
2024-04-05T04:37:22.074Z,99574.17
2024-04-05T04:42:25.159Z,99578.27
2024-04-05T04:47:29.890Z,99584.40
2024-04-05T04:52:33.279Z,99587.73
2024-04-05T04:57:37.291Z,99592.61
2024-04-05T05:02:44.161Z,99601.18
2024-04-05T05:07:47.270Z,99611.55
2024-04-05T05:12:50.228Z,99627.90
2024-04-05T05:17:53.292Z,99633.05
2024-04-05T05:22:57.180Z,99647.11
2024-04-05T05:28:00.526Z,99657.61
2024-04-05T05:33:05.252Z,99658.38
2024-04-05T05:38:08.351Z,99663.94
2024-04-05T05:43:16.107Z,99673.81
2024-04-05T05:48:19.135Z,99679.30
2024-04-05T05:53:22.250Z,99681.15
2024-04-05T05:58:25.421Z,99687.73
2024-04-05T06:03:28.840Z,99697.42
2024-04-05T06:08:32.345Z,99706.39
2024-04-05T06:13:35.342Z,99714.09
2024-04-05T06:18:38.523Z,99718.90
2024-04-05T06:23:41.528Z,99729.16
2024-04-05T06:28:44.616Z,99735.17
2024-04-05T06:33:47.582Z,99735.93
2024-04-05T06:38:53.168Z,99740.34
2024-04-05T06:43:56.415Z,99741.42
2024-04-05T06:48:59.812Z,99743.21
2024-04-05T06:54:06.597Z,99768.65
2024-04-05T06:59:09.509Z,99774.84
2024-04-05T07:04:12.718Z,99784.09
2024-04-05T07:09:15.884Z,99785.92
2024-04-05T07:14:19.125Z,99791.14
2024-04-05T07:19:22.645Z,99792.63
2024-04-05T07:24:28.225Z,99795.83
2024-04-05T07:29:31.262Z,99808.27
2024-04-05T07:34:35.667Z,99814.52
2024-04-05T07:39:40.461Z,99815.81
2024-04-05T07:44:45.845Z,99817.30
2024-04-05T07:49:55.843Z,99827.34
2024-04-05T07:54:58.814Z,99833.93
2024-04-05T08:00:01.846Z,99832.34
2024-04-05T08:05:05.542Z,99847.89
2024-04-05T08:10:10.547Z,99849.60
2024-04-05T08:15:14.171Z,99855.95
2024-04-05T08:20:17.319Z,99865.88
2024-04-05T08:25:20.477Z,99868.34
2024-04-05T08:30:23.680Z,99871.53
2024-04-05T08:35:27.723Z,99869.80
2024-04-05T08:40:32.353Z,99871.38
2024-04-05T08:45:36.241Z,99873.59
2024-04-05T08:50:39.514Z,99883.06
2024-04-05T08:55:43.942Z,99883.16
2024-04-05T09:00:47.041Z,99878.17
2024-04-05T09:05:51.805Z,99877.77
2024-04-05T09:10:54.846Z,99888.94
2024-04-05T09:15:58.106Z,99895.23
2024-04-05T09:21:00.986Z,99898.79
2024-04-05T09:26:04.180Z,99906.64
2024-04-05T09:31:07.160Z,99909.77
2024-04-05T09:36:14.787Z,99911.17
2024-04-05T09:41:18.151Z,99914.67
2024-04-05T09:46:21.670Z,99920.80
2024-04-05T09:51:28.698Z,99920.70
2024-04-05T09:56:34.434Z,99922.17
2024-04-05T10:01:40.147Z,99918.54
2024-04-05T10:06:46.858Z,99910.59
2024-04-05T10:11:51.690Z,99913.38
2024-04-05T10:17:07.518Z,99918.69
2024-04-05T10:22:12.660Z,99920.84
2024-04-05T10:27:28.185Z,99917.63
2024-04-05T10:32:31.465Z,99916.55
2024-04-05T10:37:35.476Z,99920.02
2024-04-05T10:42:39.876Z,99921.58
2024-04-05T10:47:54.681Z,99932.77
2024-04-05T10:52:57.681Z,99939.30
2024-04-05T10:58:04.208Z,99946.56
2024-04-05T11:03:11.577Z,99954.11
2024-04-05T11:08:16.686Z,99962.36
2024-04-05T11:13:27.208Z,99960.39
2024-04-05T11:18:39.520Z,99960.55
2024-04-05T11:23:54.571Z,99962.88
2024-04-05T11:29:02.137Z,99967.49
2024-04-05T11:34:06.155Z,99975.47
2024-04-05T11:39:09.982Z,99970.51
2024-04-05T11:44:12.863Z,99964.00
2024-04-05T11:49:15.739Z,99957.97
2024-04-05T11:54:18.632Z,99957.62
2024-04-05T11:59:21.490Z,99960.23
2024-04-05T12:04:25.191Z,99965.00
2024-04-05T12:09:28.190Z,99974.82
2024-04-05T12:14:36.141Z,99978.24
2024-04-05T12:19:40.548Z,99983.66
2024-04-05T12:24:48.179Z,99983.81
2024-04-05T12:29:52.733Z,99987.10
2024-04-05T12:34:58.387Z,99978.35
2024-04-05T12:40:06.181Z,99977.50
2024-04-05T12:45:09.505Z,99978.34
2024-04-05T12:50:12.676Z,99980.64
2024-04-05T12:55:16.528Z,99977.50
2024-04-05T13:00:22.165Z,99971.68
2024-04-05T13:05:26.932Z,99970.90
2024-04-05T13:10:30.882Z,99965.80
2024-04-05T13:15:36.572Z,99959.96
2024-04-05T13:20:39.510Z,99958.42
2024-04-05T13:25:43.981Z,99953.77
2024-04-05T13:30:57.122Z,99955.76
2024-04-05T13:36:11.762Z,99957.05
2024-04-05T13:41:15.777Z,99951.94
2024-04-05T13:46:20.360Z,99944.30
2024-04-05T13:51:27.701Z,99950.27
2024-04-05T13:56:30.914Z,99956.02
2024-04-05T14:01:33.912Z,99947.42
2024-04-05T14:06:39.320Z,99941.11
2024-04-05T14:11:42.638Z,99935.09
2024-04-05T14:16:47.664Z,99933.00
2024-04-05T14:21:52.284Z,99933.38
2024-04-05T14:26:56.934Z,99933.36
2024-04-05T14:32:02.124Z,99926.23
2024-04-05T14:37:07.148Z,99926.66
2024-04-05T14:42:11.406Z,99920.88
2024-04-05T14:47:14.301Z,99919.80
2024-04-05T14:52:17.379Z,99914.86
2024-04-05T14:57:20.371Z,99913.31
2024-04-05T15:02:23.218Z,99913.18
2024-04-05T15:07:26.859Z,99906.10
2024-04-05T15:12:29.825Z,99899.61
2024-04-05T15:17:32.863Z,99895.13
2024-04-05T15:22:35.939Z,99890.17
2024-04-05T15:27:39.162Z,99888.47
2024-04-05T15:32:44.334Z,99891.71
2024-04-05T15:37:52.283Z,99893.45
2024-04-05T15:42:55.290Z,99877.53
2024-04-05T15:47:58.250Z,99879.08
2024-04-05T15:53:01.264Z,99875.96
2024-04-05T15:58:04.385Z,99865.73
2024-04-05T16:03:08.567Z,99861.34
2024-04-05T16:08:12.275Z,99870.23
2024-04-05T16:13:15.166Z,99874.55
2024-04-05T16:18:18.216Z,99876.70
2024-04-05T16:23:21.207Z,99873.63
2024-04-05T16:28:24.561Z,99873.80
2024-04-05T16:33:29.294Z,99870.06
2024-04-05T16:38:35.895Z,99847.62
2024-04-05T16:43:40.964Z,99838.30
2024-04-05T16:48:45.857Z,99835.84
2024-04-05T16:53:49.584Z,99827.61
2024-04-05T16:58:52.729Z,99818.82
2024-04-05T17:03:58.523Z,99811.54
2024-04-05T17:09:01.480Z,99809.67
2024-04-05T17:14:06.844Z,99813.27
2024-04-05T17:19:09.835Z,99816.68
2024-04-05T17:24:14.807Z,99823.00
2024-04-05T17:29:19.355Z,99830.64
2024-04-05T17:34:22.477Z,99834.77
2024-04-05T17:39:26.812Z,99831.83
2024-04-05T17:44:32.911Z,99826.88
2024-04-05T17:49:38.790Z,99822.70
2024-04-05T17:54:41.758Z,99818.52
2024-04-05T17:59:44.738Z,99820.70
2024-04-05T18:04:47.734Z,99819.76
2024-04-05T18:09:50.736Z,99822.19
2024-04-05T18:14:53.812Z,99828.88
2024-04-05T18:19:56.952Z,99824.52
2024-04-05T18:24:59.939Z,99831.17
2024-04-05T18:30:02.930Z,99831.33
2024-04-05T18:35:08.138Z,99826.77
2024-04-05T18:40:14.315Z,99819.78
2024-04-05T18:45:25.938Z,99810.73
2024-04-05T18:50:29.283Z,99803.10
2024-04-05T18:55:36.978Z,99793.17
2024-04-05T19:00:44.339Z,99779.81
2024-04-05T19:05:49.362Z,99766.55
2024-04-05T19:10:52.406Z,99763.87
2024-04-05T19:15:55.784Z,99762.98
2024-04-05T19:21:01.527Z,99761.17
2024-04-05T19:26:06.554Z,99758.10
2024-04-05T19:31:09.709Z,99756.11
2024-04-05T19:36:16.212Z,99750.41
2024-04-05T19:41:22.096Z,99743.33
2024-04-05T19:46:28.629Z,99729.77
2024-04-05T19:51:37.528Z,99723.14
2024-04-05T19:56:40.589Z,99709.24
2024-04-05T20:01:50.831Z,99695.80
2024-04-05T20:06:53.792Z,99686.84
2024-04-05T20:11:57.049Z,99683.00
2024-04-05T20:17:02.573Z,99675.59
2024-04-05T20:22:05.489Z,99671.29
2024-04-05T20:27:08.870Z,99662.77
2024-04-05T20:32:27.313Z,99655.89
2024-04-05T20:37:31.632Z,99653.67
2024-04-05T20:42:34.708Z,99656.54
2024-04-05T20:47:38.440Z,99657.52
2024-04-05T20:52:41.454Z,99659.09
2024-04-05T20:57:47.548Z,99657.73
2024-04-05T21:02:51.238Z,99647.45
2024-04-05T21:07:54.274Z,99651.54
2024-04-05T21:12:57.276Z,99643.83
2024-04-05T21:18:00.359Z,99644.92
2024-04-05T21:23:04.344Z,99642.40
2024-04-05T21:28:07.326Z,99636.90
2024-04-05T21:33:10.297Z,99624.20
2024-04-05T21:38:13.815Z,99618.66
2024-04-05T21:43:16.827Z,99610.80
2024-04-05T21:48:19.934Z,99609.45
2024-04-05T21:53:26.432Z,99598.41
2024-04-05T21:58:30.934Z,99582.95
2024-04-05T22:03:34.364Z,99574.27
2024-04-05T22:08:37.361Z,99575.94
2024-04-05T22:13:40.419Z,99577.40
2024-04-05T22:18:44.320Z,99577.60
2024-04-05T22:23:47.385Z,99570.60
2024-04-05T22:28:50.590Z,99559.98
2024-04-05T22:33:53.591Z,99543.02
2024-04-05T22:39:00.655Z,99539.23
2024-04-05T22:44:03.743Z,99526.77
2024-04-05T22:49:06.779Z,99523.33
2024-04-05T22:54:11.958Z,99513.27
2024-04-05T22:59:15.018Z,99500.11
2024-04-05T23:04:18.148Z,99538.45
2024-04-05T23:09:21.404Z,99559.05
2024-04-05T23:14:24.419Z,99555.74
2024-04-05T23:19:27.368Z,99567.60
2024-04-05T23:24:30.475Z,99566.16
2024-04-05T23:29:33.500Z,99569.23
2024-04-05T23:34:36.469Z,99580.24
2024-04-05T23:39:39.508Z,99595.61
2024-04-05T23:44:45.640Z,99604.62
2024-04-05T23:49:51.818Z,99575.74
2024-04-05T23:54:59.726Z,99543.64
